DW9919 Weather Reports


time (UTC)temp
F
wind
direction
speed
knots
gust
knots
rain 1hr
in
rain 24hr
in
rain mn
in
humidity
%
barometer
mb
20211025043133 74 171 5.2 10.4 0.00 0.08 0.08 92 1014.4
20211025041656 73 148 5.2 11.3 0.00 0.08 0.08 91 1014.6
20211025040139 73 92 5.2 9.6 0.00 0.08 0.08 92 1014.7
20211025034559 73 141 5.2 10.4 0.00 0.08 0.08 93 1014.7
20211025033114 73 146 5.2 12.2 0.00 0.08 0.08 92 1014.6
20211025031825 73 70 4.3 9.6 0.00 0.08 0.08 92 1014.5
20211025030116 73 134 4.3 11.3 0.00 0.08 0.08 91 1014.5
20211025024640 73 80 3.5 11.3 0.00 0.08 0.08 93 1014.6
20211025023242 73 91 3.5 12.2 0.00 0.08 0.08 93 1014.4
20211025020119 73 103 6.1 13.0 0.00 0.08 0.08 93 1014.5
20211025014630 74 153 11.3 17.4 0.00 0.08 0.08 92 1014.3
20211025013124 75 161 9.6 14.8 0.00 0.08 0.08 89 1014.4
20211025011615 75 108 5.2 10.4 0.00 0.08 0.08 89 1014.3
20211025010055 76 131 3.5 9.6 0.00 0.08 0.08 89 1014.1
20211025004638 76 110 6.1 9.6 0.00 0.08 0.08 83 1014.1
20211025003056 76 112 7.8 12.2 0.00 0.08 0.08 82 1014.1
20211025001646 76 127 5.2 8.7 0.00 0.08 0.08 86 1013.8
20211025000055 76 148 6.1 11.3 0.00 0.08 0.08 87 1013.7
20211024234557 76 130 5.2 12.2 0.00 0.08 0.08 89 1013.7
20211024233125 76 145 6.1 10.4 0.05 0.08 0.08 89 1013.5
20211024231604 76 138 4.3 11.3 0.05 0.08 0.08 89 1013.4
20211024230050 76 106 6.1 11.3 0.05 0.08 0.08 91 1013.5
20211024224607 75 138 7.0 11.3 0.05 0.08 0.08 90 1013.5
20211024223104 77 89 8.7 13.9 0.00 0.03 0.03 85 1013.5
20211024221616 77 132 7.8 13.9 0.00 0.03 0.03 87 1013.4
20211024220053 77 116 7.8 11.3 0.00 0.03 0.03 84 1013.5
20211024214600 77 138 6.1 9.6 0.00 0.03 0.03 84 1013.6
20211024213128 77 147 7.0 12.2 0.00 0.03 0.03 84 1013.9
20211024211627 76 198 6.1 10.4 0.01 0.03 0.03 88 1014.1
20211024210032 74 144 1.7 8.7 0.03 0.03 0.03 93 1013.9
20211024204549 74 85 3.5 11.3 0.03 0.03 0.03 92 1013.8
20211024203104 74 105 3.5 10.4 0.03 0.03 0.03 92 1013.5
20211024201542 74 70 2.6 8.7 0.01 0.01 0.01 89 1013.7
20211024200047 75 74 1.7 7.0 0.00 0.00 0.00 86 1013.9
20211024194551 75 86 1.7 9.6 0.00 0.00 0.00 86 1014.0
20211024193030 76 88 1.7 8.7 0.00 0.00 0.00 86 1014.0
20211024191536 75 126 2.6 7.0 0.00 0.00 0.00 86 1014.3
20211024190031 75 109 0.9 7.8 0.00 0.00 0.00 85 1014.5
20211024184538 75 129 2.6 7.0 0.00 0.00 0.00 84 1014.7
20211024183024 75 133 3.5 7.8 0.00 0.00 0.00 84 1014.9
20211024181538 75 113 1.7 5.2 0.00 0.00 0.00 84 1014.8
20211024174531 75 82 3.5 7.8 0.00 0.00 0.00 84 1015.3
20211024173024 75 90 2.6 6.1 0.00 0.00 0.00 83 1015.7
20211024171533 75 48 1.7 7.0 0.00 0.00 0.00 83 1016.1
20211024170013 75 101 0.9 7.0 0.00 0.00 0.00 84 1016.3
20211024164514 75 103 0.9 6.1 0.00 0.00 0.00 83 1016.6
20211024163013 75 120 1.7 5.2 0.00 0.00 0.00 84 1016.9
20211024161517 74 103 1.7 7.0 0.00 0.00 0.00 84 1017.1
20211024160031 74 37 0.0 5.2 0.00 0.00 0.00 84 1017.2
20211024154514 73 94 1.7 6.1 0.00 0.00 0.00 83 1017.4
20211024153039 73 74 1.7 7.8 0.00 0.00 0.00 83 1017.4
20211024151509 72 102 2.6 7.0 0.00 0.00 0.00 84 1017.3
20211024150019 72 88 0.0 5.2 0.00 0.00 0.00 85 1017.3
20211024144506 72 104 0.0 4.3 0.00 0.00 0.00 86 1017.2
20211024143024 71 101 0.0 4.3 0.00 0.00 0.00 86 1017.1
20211024141503 71 95 2.6 7.8 0.00 0.00 0.00 86 1016.9
20211024140243 71 79 0.0 0.9 0.00 0.00 0.00 88 1016.6
20211024134647 70 45 0.0 0.9 0.00 0.00 0.00 89 1016.6
20211024133212 70 60 0.0 0.9 0.00 0.00 0.00 89 1016.4
20211024131651 70 53 2.6 7.8 0.00 0.00 0.00 89 1016.0
20211024130125 70 37 1.7 4.3 0.00 0.00 0.00 90 1016.1
20211024124631 70 58 1.7 3.5 0.00 0.00 0.00 91 1016.1
20211024123127 69 23 0.0 3.5 0.00 0.00 0.00 91 1016.0
20211024121621 69 72 0.0 2.6 0.00 0.00 0.00 91 1015.9
20211024120102 70 36 0.0 0.9 0.00 0.00 0.00 90 1015.7
20211024114659 69 73 0.0 3.5 0.00 0.00 0.00 90 1015.3
20211024113114 69 37 1.7 4.3 0.00 0.00 0.00 91 1015.1
20211024111604 69 53 0.0 0.9 0.00 0.00 0.00 90 1015.2
20211024110114 69 83 0.0 4.3 0.00 0.00 0.00 90 1015.0
20211024104651 69 27 0.0 3.5 0.00 0.00 0.00 90 1015.1
20211024103215 69 32 0.9 5.2 0.00 0.00 0.00 89 1015.1
20211024101606 70 51 1.7 6.1 0.00 0.00 0.00 89 1014.9
20211024100112 70 49 2.6 5.2 0.00 0.00 0.00 89 1014.9
20211024094635 69 93 0.0 2.6 0.00 0.00 0.00 89 1015.0
20211024093101 69 108 0.0 0.9 0.00 0.00 0.00 89 1014.9
20211024091625 69 115 0.0 1.7 0.00 0.00 0.00 89 1015.1
20211024090053 69 36 0.0 0.9 0.00 0.00 0.00 89 1015.1
20211024084607 69 96 0.0 3.5 0.00 0.00 0.00 87 1015.3
20211024083137 70 72 0.0 3.5 0.00 0.00 0.00 86 1015.2
20211024081639 71 25 1.7 4.3 0.00 0.00 0.00 84 1015.5
20211024080114 75 64 0.0 8.7 0.00 0.00 0.00 76 1015.3
20211024074601 75 143 3.5 8.7 0.00 0.00 0.00 77 1015.4
20211024073123 74 125 5.2 9.6 0.00 0.00 0.00 78 1015.5
20211024071628 70 100 0.0 3.5 0.00 0.00 0.00 87 1015.4
20211024070102 69 103 0.0 1.7 0.00 0.00 0.00 89 1015.5
20211024064549 69 101 0.0 2.6 0.00 0.00 0.00 91 1015.5
20211024063053 69 97 0.0 0.9 0.00 0.00 0.00 93 1015.6
20211024061536 69 100 0.0 0.9 0.00 0.00 0.00 93 1015.7
20211024060105 69 91 0.0 0.9 0.00 0.00 0.00 92 1015.7
20211024054540 69 102 0.0 0.9 0.00 0.00 0.00 91 1015.5
20211024053025 70 51 0.0 0.9 0.00 0.00 0.00 91 1015.7
20211024051519 69 75 0.0 1.7 0.00 0.00 0.00 91 1015.8
20211024050049 69 108 0.0 0.0 0.00 0.00 0.00 90 1015.9
20211024044518 70 91 0.0 0.0 0.00 0.00 0.00 88 1016.0